Copiapo, Chile
Current Conditions -  °F | °C
As of 3:00 PM on Friday 28 Nov 2014 (Local Time) from SCAT Reporting Station
Broken Clouds Broken Clouds  
Wind Chill: 64°   Ceiling: 20000
Heat Index: 64°   Visibility: 6mi
Dew Point: 52°   Wind: 6mph
Humidity: 64%   Direction: 270°W
Pressure: 29.94"   Gusts: NA
Location:  27.36°S, 70.34°W
Report Text: SCAT 281800Z 27005KT 220V330 9999 SCT023 BKN200 18/11 Q1014
Loading
Personal Weather Stations






























Interactive Weather Map New forecast layout! Learn more

10-Day Weather Forecast

Advertisements
Track Severe Weather on mobile